Terminal Aerodrome Forecast
Issued by NWS

Home | Current Version | Previous Version | Text Only | Print | Product List | Glossary Off
Versions: 1 2 3 4 5 6 7 8 9 10 11 12 13 14 15 16 17 18 19 20 21 22

354
FTUS43 KICT 050941 AAA
TAFCNU
TAF AMD
KCNU 050941Z 0510/0606 18007KT P6SM SCT250
     FM051600 18010KT P6SM SCT250
     FM060000 17005KT P6SM BKN250=

USA.gov is the U.S. government's official web portal to all federal, state and local government web resources and services.